Disclaimer

Please do not use the information listed here in-flight or in-navigation, as they are not provided to us by the airports but are provided by volunteers, so they might be outdated.

Search


Regions


Airport information page

Radio informations:
Tower (TWR) - 120.3 MHz
Ground (GND) - 121.825 MHz

Airport informations:
Latitude: 38° 43' 30.09" N
Longitude: 009° 21' 18.83" W
Elevation: 326 feet - 99 meters
Operating hours: Remarks
Operating agency: Civil government, landing fees and diplomatic clearance may be required
Timezone: UTC 0(+1DT) - Last Sunday in March to last Sunday in October
Fuel: Jet fuel avaiable but type is unknown.

100/130 MIL Spec, low lead, aviation gasoline (BLUE)

Runway information:
17/35 - 3904 x 98 feet< - >1190 x 30 meters

Recent METARs:
LPCS 191900Z 19004KT 9999 FEW018 SCT022 14/13 Q1004
LPCS 191900Z 19004KT 9999 FEW018 SCT022 14/13 Q1004
LPCS 191900Z 19004KT 9999 FEW018 SCT022 14/13 Q1004

Airport on the map: